createdAt,value
2018-09-01T00:00:00.370Z,3.43
2018-09-01T00:02:28.600Z,3.40
2018-09-01T00:04:56.877Z,2.60
2018-09-01T00:07:25.141Z,3.70
2018-09-01T00:09:53.347Z,3.00
2018-09-01T00:12:21.554Z,2.70
2018-09-01T00:14:49.849Z,2.53
2018-09-01T00:17:23.491Z,3.63
2018-09-01T00:19:51.717Z,3.00
2018-09-01T00:22:20.020Z,2.80
2018-09-01T00:24:48.287Z,3.10
2018-09-01T00:27:16.526Z,3.43
2018-09-01T00:29:44.742Z,2.70
2018-09-01T00:32:13.000Z,3.33
2018-09-01T00:34:41.392Z,3.37
2018-09-01T00:37:09.648Z,3.73
2018-09-01T00:39:45.322Z,3.97
2018-09-01T00:42:13.738Z,3.00
2018-09-01T00:44:41.980Z,2.80
2018-09-01T00:47:10.219Z,3.47
2018-09-01T00:49:38.486Z,3.37
2018-09-01T00:52:06.721Z,2.50
2018-09-01T00:54:34.971Z,3.17
2018-09-01T00:57:03.836Z,3.20
2018-09-01T00:59:32.076Z,3.20
2018-09-01T01:02:00.311Z,3.70
2018-09-01T01:04:28.603Z,3.80
2018-09-01T01:06:56.847Z,2.83
2018-09-01T01:09:25.078Z,4.00
2018-09-01T01:11:53.307Z,2.67
2018-09-01T01:14:21.543Z,3.20
2018-09-01T01:16:49.751Z,3.40
2018-09-01T01:19:18.032Z,2.80
2018-09-01T01:21:46.279Z,2.73
2018-09-01T01:24:14.730Z,2.40
2018-09-01T01:26:42.967Z,2.93
2018-09-01T01:29:11.263Z,2.30
2018-09-01T01:31:39.484Z,3.17
2018-09-01T01:34:07.723Z,2.93
2018-09-01T01:36:35.973Z,3.30
2018-09-01T01:39:05.071Z,3.13
2018-09-01T01:41:33.299Z,3.20
2018-09-01T01:44:01.515Z,2.70
2018-09-01T01:46:29.787Z,2.80
2018-09-01T01:48:58.007Z,3.03
2018-09-01T01:51:26.259Z,3.30
2018-09-01T01:53:54.667Z,4.20
2018-09-01T01:56:22.898Z,4.50
2018-09-01T01:58:51.155Z,4.33
2018-09-01T02:01:19.402Z,4.70
2018-09-01T02:03:47.667Z,4.47
2018-09-01T02:06:15.888Z,5.30
2018-09-01T02:08:44.118Z,4.27
2018-09-01T02:11:12.364Z,4.83
2018-09-01T02:13:40.577Z,4.00
2018-09-01T02:16:08.819Z,3.83
2018-09-01T02:18:37.118Z,4.00
2018-09-01T02:21:05.334Z,4.40
2018-09-01T02:23:33.570Z,4.07
2018-09-01T02:26:01.824Z,4.27
2018-09-01T02:28:30.578Z,5.10
2018-09-01T02:30:58.838Z,4.17
2018-09-01T02:33:27.964Z,4.13
2018-09-01T02:35:56.832Z,3.90
2018-09-01T02:38:25.103Z,4.40
2018-09-01T02:40:53.324Z,3.87
2018-09-01T02:43:21.555Z,4.67
2018-09-01T02:45:49.822Z,4.40
2018-09-01T02:48:18.063Z,4.00
2018-09-01T02:50:46.270Z,3.83
2018-09-01T02:53:14.571Z,4.37
2018-09-01T02:55:42.779Z,3.30
2018-09-01T02:58:11.087Z,3.50
2018-09-01T03:00:39.311Z,4.60
2018-09-01T03:03:07.587Z,4.37
2018-09-01T03:05:35.824Z,3.90
2018-09-01T03:08:04.173Z,4.17
2018-09-01T03:10:32.414Z,6.17
2018-09-01T03:13:00.631Z,5.30
2018-09-01T03:15:29.051Z,5.80
2018-09-01T03:17:57.280Z,5.23
2018-09-01T03:20:25.531Z,6.40
2018-09-01T03:22:53.754Z,8.20
2018-09-01T03:25:21.966Z,6.57
2018-09-01T03:27:50.230Z,6.20
2018-09-01T03:30:18.485Z,5.80
2018-09-01T03:32:46.688Z,6.80
2018-09-01T03:35:14.903Z,6.43
2018-09-01T03:37:43.159Z,6.20
2018-09-01T03:40:11.397Z,5.73
2018-09-01T03:42:39.632Z,6.57
2018-09-01T03:45:07.998Z,7.00
2018-09-01T03:47:36.221Z,5.07
2018-09-01T03:50:04.489Z,5.30
2018-09-01T03:52:32.724Z,5.97
2018-09-01T03:55:00.937Z,5.80
2018-09-01T03:57:29.202Z,6.60
2018-09-01T03:59:57.419Z,5.37
2018-09-01T04:02:25.661Z,7.70
2018-09-01T04:04:53.888Z,4.97
2018-09-01T04:07:22.122Z,4.80
2018-09-01T04:09:50.362Z,4.37
2018-09-01T04:12:18.611Z,5.23
2018-09-01T04:14:47.011Z,5.00
2018-09-01T04:17:15.458Z,4.67
2018-09-01T04:19:43.650Z,5.00
2018-09-01T04:22:11.855Z,5.57
2018-09-01T04:24:40.038Z,5.17
2018-09-01T04:27:08.266Z,4.97
2018-09-01T04:29:36.463Z,6.77
2018-09-01T04:32:04.752Z,6.27
2018-09-01T04:34:32.875Z,5.67
2018-09-01T04:37:01.092Z,6.97
2018-09-01T04:39:29.291Z,5.83
2018-09-01T04:41:57.516Z,5.50
2018-09-01T04:44:25.775Z,5.87
2018-09-01T04:46:53.995Z,6.10
2018-09-01T04:49:22.183Z,5.93
2018-09-01T04:51:50.428Z,5.67
2018-09-01T04:54:18.631Z,7.50
2018-09-01T04:56:46.856Z,5.80
2018-09-01T04:59:15.075Z,7.40
2018-09-01T05:01:43.312Z,5.97
2018-09-01T05:04:11.540Z,6.20
2018-09-01T05:06:39.738Z,6.50
2018-09-01T05:09:08.006Z,5.20
2018-09-01T05:11:42.791Z,5.47
2018-09-01T05:14:11.040Z,5.40
2018-09-01T05:16:39.238Z,5.70
2018-09-01T05:19:07.427Z,5.80
2018-09-01T05:21:35.659Z,5.60
2018-09-01T05:24:03.924Z,5.80
2018-09-01T05:26:32.064Z,5.80
2018-09-01T05:29:00.271Z,5.90
2018-09-01T05:31:28.451Z,6.30
2018-09-01T05:33:56.679Z,5.67
2018-09-01T05:36:24.913Z,5.00
2018-09-01T05:38:53.162Z,6.10
2018-09-01T05:41:21.430Z,5.73
2018-09-01T05:43:49.800Z,6.90
2018-09-01T05:46:17.938Z,6.27
2018-09-01T05:48:46.999Z,6.27
2018-09-01T05:51:15.222Z,5.37
2018-09-01T05:53:43.423Z,6.90
2018-09-01T05:56:11.610Z,5.83
2018-09-01T05:58:39.864Z,5.33
2018-09-01T06:01:14.707Z,5.70
2018-09-01T06:03:42.913Z,6.20
2018-09-01T06:06:11.334Z,5.77
2018-09-01T06:08:39.332Z,5.80
2018-09-01T06:11:07.545Z,4.87
2018-09-01T06:13:35.821Z,5.37
2018-09-01T06:16:04.043Z,5.00
2018-09-01T06:18:32.278Z,5.70
2018-09-01T06:21:00.490Z,6.30
2018-09-01T06:23:28.714Z,5.77
2018-09-01T06:25:56.898Z,6.30
2018-09-01T06:28:28.564Z,5.37
2018-09-01T06:30:57.016Z,5.70
2018-09-01T06:33:25.238Z,5.87
2018-09-01T06:35:53.469Z,6.87
2018-09-01T06:38:21.677Z,6.93
2018-09-01T06:40:49.907Z,6.70
2018-09-01T06:43:18.112Z,5.97
2018-09-01T06:45:46.334Z,6.10
2018-09-01T06:48:14.583Z,6.90
2018-09-01T06:50:42.792Z,6.03
2018-09-01T06:53:11.026Z,7.10
2018-09-01T06:55:39.270Z,7.03
2018-09-01T06:58:07.503Z,6.70
2018-09-01T07:00:35.706Z,7.50
2018-09-01T07:03:04.838Z,7.70
2018-09-01T07:05:33.135Z,7.23
2018-09-01T07:08:01.338Z,6.87
2018-09-01T07:10:29.578Z,6.60
2018-09-01T07:12:57.815Z,6.47
2018-09-01T07:15:26.010Z,6.00
2018-09-01T07:17:57.238Z,7.27
2018-09-01T07:20:25.442Z,7.40
2018-09-01T07:22:53.663Z,7.10
2018-09-01T07:25:21.882Z,7.67
2018-09-01T07:27:50.087Z,7.20
2018-09-01T07:30:18.671Z,8.83
2018-09-01T07:32:47.154Z,7.60
2018-09-01T07:35:16.149Z,6.80
2018-09-01T07:37:44.834Z,5.80
2018-09-01T07:40:13.360Z,6.10
2018-09-01T07:42:41.986Z,5.80
2018-09-01T07:45:10.215Z,6.10
2018-09-01T07:47:40.111Z,4.00
2018-09-01T07:50:08.784Z,3.43
2018-09-01T07:52:37.158Z,4.30
2018-09-01T07:55:05.869Z,3.90
2018-09-01T07:57:34.285Z,6.20
2018-09-01T08:00:02.831Z,5.50
2018-09-01T08:02:31.054Z,6.17
2018-09-01T08:04:59.364Z,5.43
2018-09-01T08:07:27.667Z,4.73
2018-09-01T08:09:55.827Z,4.43
2018-09-01T08:12:24.018Z,4.50
2018-09-01T08:14:52.210Z,4.70
2018-09-01T08:17:20.446Z,4.70
2018-09-01T08:19:48.744Z,6.50
2018-09-01T08:22:16.999Z,4.43
2018-09-01T08:24:45.304Z,4.20
2018-09-01T08:27:13.522Z,3.07
2018-09-01T08:29:41.759Z,3.27
2018-09-01T08:32:10.002Z,2.60
2018-09-01T08:34:38.412Z,3.57
2018-09-01T08:37:06.699Z,2.20
2018-09-01T08:39:34.905Z,2.83
2018-09-01T08:42:03.094Z,2.83
2018-09-01T08:44:31.314Z,1.70
2018-09-01T08:46:59.525Z,1.93
2018-09-01T08:49:27.795Z,2.83
2018-09-01T08:51:56.043Z,2.20
2018-09-01T08:54:24.350Z,2.30
2018-09-01T08:56:52.808Z,2.33
2018-09-01T08:59:21.019Z,2.07
2018-09-01T09:01:49.273Z,1.80
2018-09-01T09:04:17.531Z,2.53
2018-09-01T09:06:45.743Z,2.00
2018-09-01T09:09:14.016Z,1.60
2018-09-01T09:11:42.324Z,2.27
2018-09-01T09:14:10.511Z,1.80
2018-09-01T09:16:38.751Z,2.17
2018-09-01T09:19:06.908Z,1.30
2018-09-01T09:21:35.136Z,2.07
2018-09-01T09:24:03.414Z,1.80
2018-09-01T09:26:31.639Z,1.33
2018-09-01T09:28:59.868Z,2.03
2018-09-01T09:31:28.108Z,1.80
2018-09-01T09:33:56.399Z,3.37
2018-09-01T09:36:24.680Z,3.77
2018-09-01T09:38:53.054Z,1.77
2018-09-01T09:41:21.316Z,2.47
2018-09-01T09:43:49.543Z,1.57
2018-09-01T09:46:18.200Z,2.20
2018-09-01T09:48:46.667Z,2.37
2018-09-01T09:51:14.910Z,1.43
2018-09-01T09:53:43.833Z,1.63
2018-09-01T09:56:12.059Z,1.63
2018-09-01T09:58:40.290Z,1.20
2018-09-01T10:01:13.795Z,1.30
2018-09-01T10:03:42.163Z,2.10
2018-09-01T10:06:10.543Z,1.53
2018-09-01T10:08:38.754Z,1.43
2018-09-01T10:11:07.072Z,0.97
2018-09-01T10:13:35.259Z,0.90
2018-09-01T10:16:03.471Z,1.10
2018-09-01T10:18:31.689Z,1.10
2018-09-01T10:20:59.886Z,1.10
2018-09-01T10:23:28.103Z,1.03
2018-09-01T10:25:56.443Z,1.10
2018-09-01T10:28:24.695Z,1.27
2018-09-01T10:30:52.947Z,1.13
2018-09-01T10:33:21.790Z,1.10
2018-09-01T10:35:50.220Z,1.23
2018-09-01T10:38:18.598Z,1.20
2018-09-01T10:40:46.790Z,1.30
2018-09-01T10:43:15.016Z,1.40
2018-09-01T10:45:43.251Z,1.17
2018-09-01T10:48:11.529Z,0.90
2018-09-01T10:50:39.800Z,1.10
2018-09-01T10:53:07.992Z,1.00
2018-09-01T10:55:36.386Z,1.40
2018-09-01T10:58:04.611Z,1.23
2018-09-01T11:00:32.965Z,1.10
2018-09-01T11:03:01.224Z,1.10
2018-09-01T11:05:29.520Z,0.90
2018-09-01T11:07:57.719Z,1.33
2018-09-01T11:10:25.923Z,1.00
2018-09-01T11:12:54.213Z,1.20
2018-09-01T11:15:22.411Z,0.80
2018-09-01T11:17:50.620Z,1.10
2018-09-01T11:20:18.929Z,1.00
2018-09-01T11:22:47.130Z,1.20
2018-09-01T11:25:15.689Z,1.20
2018-09-01T11:27:43.914Z,1.27
2018-09-01T11:30:12.303Z,0.87
2018-09-01T11:32:40.615Z,1.00
2018-09-01T11:35:09.249Z,1.10
2018-09-01T11:37:37.524Z,0.97
2018-09-01T11:40:06.010Z,1.20
2018-09-01T11:42:34.420Z,1.00
2018-09-01T11:45:02.545Z,1.00
2018-09-01T11:47:31.043Z,1.30
2018-09-01T11:49:59.263Z,0.97
2018-09-01T11:52:27.475Z,1.20
2018-09-01T11:54:55.734Z,1.20
2018-09-01T11:57:23.984Z,2.20
2018-09-01T11:59:52.209Z,1.10
2018-09-01T12:02:27.033Z,1.00
2018-09-01T12:04:55.244Z,1.17
2018-09-01T12:07:23.451Z,0.90
2018-09-01T12:09:51.657Z,1.00
2018-09-01T12:12:19.854Z,1.07
2018-09-01T12:14:48.054Z,1.43
2018-09-01T12:17:16.396Z,1.20
2018-09-01T12:19:44.624Z,1.53
2018-09-01T12:22:12.879Z,1.17
2018-09-01T12:24:41.165Z,1.03
2018-09-01T12:27:09.363Z,1.30
2018-09-01T12:29:37.638Z,1.20
2018-09-01T12:32:06.003Z,1.00
2018-09-01T12:34:34.219Z,1.47
2018-09-01T12:37:02.634Z,1.30
2018-09-01T12:39:31.103Z,1.63
2018-09-01T12:41:59.416Z,1.43
2018-09-01T12:44:27.619Z,1.27
2018-09-01T12:46:55.822Z,1.00
2018-09-01T12:49:24.339Z,1.00
2018-09-01T12:51:52.940Z,1.30
2018-09-01T12:54:21.334Z,1.33
2018-09-01T12:56:49.611Z,1.40
2018-09-01T12:59:17.878Z,1.40
2018-09-01T13:01:46.095Z,1.50
2018-09-01T13:04:14.369Z,0.90
2018-09-01T13:06:42.615Z,1.20
2018-09-01T13:09:10.819Z,2.03
2018-09-01T13:11:39.055Z,1.50
2018-09-01T13:14:07.268Z,3.13
2018-09-01T13:16:35.491Z,1.20
2018-09-01T13:19:03.872Z,1.20
2018-09-01T13:21:32.170Z,1.53
2018-09-01T13:24:00.546Z,1.30
2018-09-01T13:26:28.735Z,1.10
2018-09-01T13:28:56.935Z,1.17
2018-09-01T13:31:25.164Z,1.23
2018-09-01T13:33:53.374Z,0.97
2018-09-01T13:36:21.624Z,1.20
2018-09-01T13:38:49.855Z,1.57
2018-09-01T13:41:18.328Z,1.23
2018-09-01T13:43:47.906Z,1.60
2018-09-01T13:46:17.070Z,1.50
2018-09-01T13:48:45.287Z,1.57
2018-09-01T13:51:14.162Z,1.00
2018-09-01T13:53:42.766Z,1.00
2018-09-01T13:56:11.653Z,1.40
2018-09-01T13:58:40.317Z,1.23
2018-09-01T14:01:08.898Z,1.20
2018-09-01T14:03:37.163Z,1.50
2018-09-01T14:06:05.982Z,1.30
2018-09-01T14:08:34.557Z,1.70
2018-09-01T14:11:02.761Z,1.53
2018-09-01T14:13:31.990Z,1.77
2018-09-01T14:16:00.790Z,1.50
2018-09-01T14:18:28.997Z,1.70
2018-09-01T14:20:57.368Z,1.37
2018-09-01T14:23:25.778Z,1.20
2018-09-01T14:25:54.004Z,0.83
2018-09-01T14:28:22.427Z,1.00
2018-09-01T14:30:50.871Z,1.00
2018-09-01T14:33:19.163Z,0.80
2018-09-01T14:35:48.479Z,0.97
2018-09-01T14:38:16.941Z,1.07
2018-09-01T14:40:45.167Z,1.40
2018-09-01T14:43:13.451Z,1.30
2018-09-01T14:45:41.672Z,4.97
2018-09-01T14:48:09.926Z,1.50
2018-09-01T14:50:38.141Z,1.50
2018-09-01T14:53:06.470Z,2.00
2018-09-01T14:55:34.799Z,2.27
2018-09-01T14:58:03.012Z,1.50
2018-09-01T15:00:31.211Z,1.27
2018-09-01T15:02:59.410Z,1.80
2018-09-01T15:05:27.623Z,1.20
2018-09-01T15:07:55.878Z,1.07
2018-09-01T15:10:24.158Z,1.40
2018-09-01T15:12:52.266Z,2.70
2018-09-01T15:15:20.618Z,2.47
2018-09-01T15:17:48.894Z,1.57
2018-09-01T15:20:17.149Z,13.20
2018-09-01T15:22:45.335Z,4.30
2018-09-01T15:25:13.541Z,0.90
2018-09-01T15:27:41.751Z,1.47
2018-09-01T15:30:10.142Z,1.00
2018-09-01T15:32:38.387Z,1.27
2018-09-01T15:35:06.820Z,1.67
2018-09-01T15:37:35.000Z,1.87
2018-09-01T15:40:03.208Z,0.90
2018-09-01T15:42:31.468Z,1.20
2018-09-01T15:44:59.728Z,0.93
2018-09-01T15:47:27.979Z,1.10
2018-09-01T15:49:56.179Z,1.00
2018-09-01T15:52:24.372Z,1.30
2018-09-01T15:54:52.633Z,1.27
2018-09-01T15:57:20.834Z,0.83
2018-09-01T15:59:49.056Z,1.13
2018-09-01T16:02:17.278Z,1.43
2018-09-01T16:04:45.607Z,1.00
2018-09-01T16:07:13.795Z,1.10
2018-09-01T16:09:42.018Z,1.10
2018-09-01T16:12:10.215Z,1.40
2018-09-01T16:14:38.464Z,1.17
2018-09-01T16:17:06.881Z,1.20
2018-09-01T16:19:35.139Z,1.33
2018-09-01T16:22:03.326Z,1.37
2018-09-01T16:24:31.544Z,1.00
2018-09-01T16:26:59.740Z,1.23
2018-09-01T16:29:27.998Z,1.40
2018-09-01T16:31:56.179Z,1.20
2018-09-01T16:34:24.459Z,1.50
2018-09-01T16:36:52.623Z,1.67
2018-09-01T16:39:20.864Z,1.37
2018-09-01T16:41:49.084Z,1.13
2018-09-01T16:44:17.325Z,1.77
2018-09-01T16:46:45.528Z,1.30
2018-09-01T16:49:13.723Z,1.20
2018-09-01T16:51:41.922Z,1.80
2018-09-01T16:54:10.132Z,1.30
2018-09-01T16:56:38.335Z,1.60
2018-09-01T16:59:06.526Z,1.13
2018-09-01T17:01:34.734Z,1.50
2018-09-01T17:04:02.973Z,1.60
2018-09-01T17:06:31.171Z,1.20
2018-09-01T17:08:59.364Z,1.60
2018-09-01T17:11:27.545Z,1.23
2018-09-01T17:13:55.859Z,1.50
2018-09-01T17:16:24.055Z,1.20
2018-09-01T17:18:52.306Z,1.40
2018-09-01T17:21:20.488Z,1.50
2018-09-01T17:23:48.706Z,1.50
2018-09-01T17:26:17.017Z,1.70
2018-09-01T17:28:45.231Z,1.80
2018-09-01T17:31:13.436Z,1.80
2018-09-01T17:33:41.725Z,1.10
2018-09-01T17:36:09.866Z,1.40
2018-09-01T17:38:38.074Z,1.77
2018-09-01T17:41:06.614Z,1.10
2018-09-01T17:43:34.991Z,1.30
2018-09-01T17:46:03.227Z,1.07
2018-09-01T17:48:31.541Z,1.20
2018-09-01T17:50:59.643Z,1.37
2018-09-01T17:53:27.814Z,1.53
2018-09-01T17:55:56.186Z,1.63
2018-09-01T17:58:24.415Z,1.60
2018-09-01T18:00:52.639Z,1.50
2018-09-01T18:03:20.840Z,1.73
2018-09-01T18:05:49.042Z,1.53
2018-09-01T18:08:17.238Z,1.23
2018-09-01T18:10:45.572Z,1.60
2018-09-01T18:13:13.707Z,1.40
2018-09-01T18:15:41.878Z,1.93
2018-09-01T18:18:10.048Z,1.37
2018-09-01T18:20:38.431Z,1.90
2018-09-01T18:23:06.702Z,2.37
2018-09-01T18:25:34.880Z,2.07
2018-09-01T18:28:03.264Z,2.00
2018-09-01T18:30:31.432Z,1.90
2018-09-01T18:32:59.643Z,2.07
2018-09-01T18:35:28.149Z,1.90
2018-09-01T18:37:56.214Z,2.10
2018-09-01T18:40:24.437Z,1.60
2018-09-01T18:42:52.644Z,2.20
2018-09-01T18:45:20.876Z,1.70
2018-09-01T18:47:49.109Z,1.83
2018-09-01T18:50:17.311Z,2.43
2018-09-01T18:52:45.521Z,1.67
2018-09-01T18:55:14.953Z,2.50
2018-09-01T18:57:43.194Z,2.10
2018-09-01T19:00:11.413Z,1.73
2018-09-01T19:02:39.661Z,1.70
2018-09-01T19:05:07.943Z,2.57
2018-09-01T19:07:36.119Z,1.73
2018-09-01T19:10:04.405Z,2.20
2018-09-01T19:12:32.588Z,3.00
2018-09-01T19:15:00.803Z,2.80
2018-09-01T19:17:29.045Z,2.53
2018-09-01T19:19:57.282Z,2.37
2018-09-01T19:22:25.500Z,2.47
2018-09-01T19:24:53.691Z,2.60
2018-09-01T19:27:21.911Z,2.50
2018-09-01T19:29:50.120Z,2.60
2018-09-01T19:32:18.327Z,2.73
2018-09-01T19:34:46.719Z,3.40
2018-09-01T19:37:14.982Z,2.60
2018-09-01T19:39:43.175Z,2.63
2018-09-01T19:42:11.399Z,3.83
2018-09-01T19:44:39.763Z,5.60
2018-09-01T19:47:07.986Z,5.93
2018-09-01T19:49:36.216Z,6.00
2018-09-01T19:52:04.394Z,4.03
2018-09-01T19:54:32.647Z,5.20
2018-09-01T19:57:00.875Z,4.00
2018-09-01T19:59:29.089Z,3.90
2018-09-01T20:01:57.299Z,4.47
2018-09-01T20:04:25.593Z,4.40
2018-09-01T20:06:53.807Z,4.03
2018-09-01T20:09:22.027Z,3.63
2018-09-01T20:11:50.288Z,3.00
2018-09-01T20:14:18.495Z,3.37
2018-09-01T20:16:47.351Z,3.80
2018-09-01T20:19:15.560Z,2.83
2018-09-01T20:21:43.798Z,3.10
2018-09-01T20:24:12.042Z,3.77
2018-09-01T20:26:40.262Z,3.10
2018-09-01T20:29:08.471Z,4.33
2018-09-01T20:31:36.690Z,3.90
2018-09-01T20:34:05.094Z,3.67
2018-09-01T20:36:33.992Z,3.83
2018-09-01T20:39:03.020Z,3.23
2018-09-01T20:41:31.276Z,3.30
2018-09-01T20:43:59.499Z,3.13
2018-09-01T20:46:27.724Z,3.53
2018-09-01T20:48:55.948Z,3.37
2018-09-01T20:51:24.105Z,3.43
2018-09-01T20:53:52.361Z,3.13
2018-09-01T20:56:20.562Z,2.80
2018-09-01T20:58:48.776Z,2.77
2018-09-01T21:01:17.007Z,2.80
2018-09-01T21:03:45.243Z,3.00
2018-09-01T21:06:13.463Z,3.37
2018-09-01T21:08:41.667Z,2.73
2018-09-01T21:11:09.884Z,3.17
2018-09-01T21:13:38.127Z,3.20
2018-09-01T21:16:06.295Z,3.00
2018-09-01T21:18:34.523Z,3.60
2018-09-01T21:21:02.724Z,3.20
2018-09-01T21:23:30.915Z,4.20
2018-09-01T21:25:59.171Z,4.00
2018-09-01T21:28:27.359Z,3.43
2018-09-01T21:30:55.583Z,3.13
2018-09-01T21:33:23.981Z,3.60
2018-09-01T21:35:52.218Z,4.40
2018-09-01T21:38:20.392Z,3.70
2018-09-01T21:40:48.620Z,3.77
2018-09-01T21:43:16.805Z,4.10
2018-09-01T21:45:45.034Z,3.40
2018-09-01T21:48:13.272Z,3.40
2018-09-01T21:50:41.481Z,3.37
2018-09-01T21:53:09.656Z,3.53
2018-09-01T21:55:37.834Z,3.80
2018-09-01T21:58:06.075Z,3.60
2018-09-01T22:00:34.297Z,3.90
2018-09-01T22:03:02.511Z,3.83
2018-09-01T22:05:30.690Z,3.63
2018-09-01T22:07:58.899Z,4.27
2018-09-01T22:10:27.080Z,3.50
2018-09-01T22:12:55.351Z,4.20
2018-09-01T22:15:23.571Z,3.50
2018-09-01T22:17:51.792Z,3.23
2018-09-01T22:20:20.124Z,3.67
2018-09-01T22:22:48.331Z,3.50
2018-09-01T22:25:16.547Z,3.27
2018-09-01T22:27:44.786Z,3.30
2018-09-01T22:30:13.010Z,4.40
2018-09-01T22:32:47.995Z,3.83
2018-09-01T22:35:16.200Z,4.90
2018-09-01T22:37:44.447Z,3.60
2018-09-01T22:40:12.703Z,3.60
2018-09-01T22:42:40.920Z,3.83
2018-09-01T22:45:09.115Z,3.60
2018-09-01T22:47:37.997Z,4.37
2018-09-01T22:50:06.246Z,3.77
2018-09-01T22:52:34.475Z,2.90
2018-09-01T22:55:02.835Z,3.83
2018-09-01T22:57:31.100Z,3.40
2018-09-01T22:59:59.253Z,3.87
2018-09-01T23:02:27.495Z,3.63
2018-09-01T23:04:55.771Z,3.77
2018-09-01T23:07:24.028Z,4.50
2018-09-01T23:09:52.304Z,5.07
2018-09-01T23:12:20.465Z,5.10
2018-09-01T23:14:48.682Z,5.03
2018-09-01T23:17:16.910Z,5.50
2018-09-01T23:19:45.553Z,5.00
2018-09-01T23:22:13.812Z,4.80
2018-09-01T23:24:42.127Z,4.63
2018-09-01T23:27:10.351Z,3.93
2018-09-01T23:29:38.542Z,5.10
2018-09-01T23:32:06.861Z,4.40
2018-09-01T23:34:35.059Z,4.83
2018-09-01T23:37:03.275Z,4.40
2018-09-01T23:39:31.458Z,4.30
2018-09-01T23:41:59.692Z,3.80
2018-09-01T23:44:27.913Z,4.00
2018-09-01T23:46:56.121Z,4.00
2018-09-01T23:49:24.330Z,4.10
2018-09-01T23:51:52.511Z,5.20
2018-09-01T23:54:20.924Z,4.00
2018-09-01T23:56:49.110Z,4.00
2018-09-01T23:59:17.314Z,3.90
